Gresham, WI (54128)

7:34 PM CDT on May 29, 2015 (GMT -0500)
Shawano | | Change Station
CLOSE
Current Station
Airport
Location: Shawano,
Elevation: 814 ft
Nearby Weather Stations

Elev 814 ft 44.79 °N, 88.56 °W | Updated 19 minutes ago

Rain
Rain
70 °F
Feels Like 70 °F
N
17
Wind Variable Wind from NW
Gusts 23 mph

Today
High -- | Low -- °F
--% Chance of Precip.
Yesterday
High -- | Low -- °F
Precip. -- in
5:14 AM 8:31 PM
Waxing Gibbous, 87% visible
Pressure 29.86 in
Visibility 7.0 miles
Clouds Scattered Clouds 1400 ft
Mostly Cloudy 4600 ft
Overcast 8000 ft
Dew Point 64 °F
Humidity 83%
Rainfall 0.23 in
Snow Depth Not available.
UV 0 out of 12
Pollen 2.40 out of 12
Air Quality Not available.
Flu Activity Sporadic
METAR KEZS 300015Z AUTO 31015G20KT 7SM RA SCT014 BKN046 OVC080 21/18 A2986 RMK AO2 LTG DSNT SW THRU N P0002 T02090180

More Conditions Fewer Conditions

Pressure 29.86 in
Visibility 7.0 miles
Clouds Scattered Clouds 1400 ft
Mostly Cloudy 4600 ft
Overcast 8000 ft
Dew Point 64 °F
Humidity 83%
Rainfall 0.23 in
Snow Depth Not available.
UV 0 out of 12
Pollen 2.40 out of 12
Air Quality Not available.
Flu Activity Sporadic
METAR KEZS 300015Z AUTO 31015G20KT 7SM RA SCT014 BKN046 OVC080 21/18 A2986 RMK AO2 LTG DSNT SW THRU N P0002 T02090180

More Conditions Fewer Conditions

10-Day Weather Forecast

Almanac

Astronomy

May. 29, 2015 Rise Set
Actual Time
Civil Twilight
Nautical Twilight
Astronomical Twilight
Moon
Length of Visible Light
Length of Day
Tomorrow will be .
, % of the Moon is Illuminated

Today's Extremes

State Highs State Lows

Community

WunderPhotos

Upload Photos

1,825,411 photos uploaded!

WunderBlogs® & News

Nearby

Air Quality

  Air Quality AQ Index Pollutant
Not available.

Snow Depth

Station Depth Elevation

Earthquake Activity

City Distance Mag. Time & Date
Minimum magnitude displayed is 2.5.

Coastal Water Temperatures

Place Temperature

Stations

Nearby Weather Stations

Station Location Temp. Windchill Dew Point Humidity Wind Precip. Elev Updated Type